Time;durP1;ratioP1;P1;durP2;ratioP2;P2;SDS_P1;SDS_P2;PMS_P1;PMS_P2;Temp;Humidity;BMP_temperature;BMP_pressure;BME280_temperature;BME280_humidity;BME280_pressure;Samples;Min_cycle;Max_cycle;Signal;HPM_P1;HPM_P2
2022/10/29 00:00:38;;;;;;;15.60;4.80;;;12.90;99.90;;;;;;5043624;28;20033;-81
2022/10/29 00:03:04;;;;;;;39.65;10.55;;;12.90;99.90;;;;;;5044682;28;20119;-81
2022/10/29 00:05:30;;;;;;;16.40;4.93;;;12.90;99.90;;;;;;5058470;28;20036;-81
2022/10/29 00:07:56;;;;;;;16.50;5.68;;;12.90;99.90;;;;;;5037970;28;20165;-81
2022/10/29 00:10:22;;;;;;;18.60;5.43;;;12.80;99.90;;;;;;5046781;28;20029;-81
2022/10/29 00:12:48;;;;;;;16.83;5.00;;;12.80;99.90;;;;;;5017802;28;20048;-81
2022/10/29 00:15:14;;;;;;;16.02;4.57;;;12.80;99.90;;;;;;5019476;28;20494;-81
2022/10/29 00:17:40;;;;;;;19.58;5.75;;;12.70;99.90;;;;;;5062774;28;20037;-81
2022/10/29 00:20:06;;;;;;;17.33;5.65;;;12.70;99.90;;;;;;5037968;28;20056;-80
2022/10/29 00:22:32;;;;;;;15.85;5.70;;;12.70;99.90;;;;;;5045590;28;20094;-80
2022/10/29 00:25:01;;;;;;;24.20;7.18;;;12.70;99.90;;;;;;5045655;28;20494;-80
2022/10/29 00:27:26;;;;;;;35.05;9.93;;;12.70;99.90;;;;;;5057101;28;20514;-80
2022/10/29 00:29:54;;;;;;;16.23;5.60;;;12.70;99.90;;;;;;5047600;28;20076;-80
2022/10/29 00:32:20;;;;;;;26.17;8.38;;;12.70;99.90;;;;;;5020584;28;20076;-81
2022/10/29 00:34:46;;;;;;;38.63;11.43;;;12.70;99.90;;;;;;5045600;28;20389;-81
2022/10/29 00:37:11;;;;;;;22.75;8.85;;;12.70;99.90;;;;;;5061892;28;20048;-80
2022/10/29 00:39:37;;;;;;;11.43;4.75;;;12.70;99.90;;;;;;5044663;28;20131;-80
2022/10/29 00:42:03;;;;;;;14.40;5.22;;;12.60;99.90;;;;;;5011559;28;20403;-80
2022/10/29 00:44:37;;;;;;;25.02;8.48;;;12.50;99.90;;;;;;5045577;28;20047;-80
2022/10/29 00:47:24;;;;;;;13.50;5.20;;;12.50;99.90;;;;;;5044721;28;20071;-80
2022/10/29 00:49:54;;;;;;;19.40;7.03;;;12.50;99.90;;;;;;5061007;28;20052;-80
2022/10/29 00:52:24;;;;;;;12.02;6.00;;;12.50;99.90;;;;;;5064235;28;20044;-80
2022/10/29 00:54:52;;;;;;;9.98;4.55;;;12.50;99.90;;;;;;5062226;28;20052;-79
2022/10/29 00:57:28;;;;;;;18.83;5.35;;;12.50;99.90;;;;;;5043717;28;20044;-79
2022/10/29 00:59:55;;;;;;;15.25;5.32;;;12.50;99.90;;;;;;5061500;28;20062;-79
2022/10/29 01:02:22;;;;;;;15.10;5.07;;;12.40;99.90;;;;;;5041994;28;20048;-79
2022/10/29 01:04:48;;;;;;;17.02;6.00;;;12.40;99.90;;;;;;5046731;28;20047;-79
2022/10/29 01:07:14;;;;;;;22.50;7.32;;;12.40;99.90;;;;;;5040706;28;20102;-80
2022/10/29 01:09:40;;;;;;;12.38;4.75;;;12.30;99.90;;;;;;5042708;28;20045;-80
2022/10/29 01:12:30;;;;;;;13.20;4.50;;;12.30;99.90;;;;;;5013640;28;20040;-79
2022/10/29 01:15:16;;;;;;;7.68;3.50;;;12.30;99.90;;;;;;5036525;28;20115;-80
2022/10/29 01:17:48;;;;;;;9.05;4.28;;;12.20;99.90;;;;;;5058791;28;20056;-80
2022/10/29 01:20:47;;;;;;;15.77;4.82;;;12.20;99.90;;;;;;5059507;28;20060;-79
2022/10/29 01:23:33;;;;;;;19.15;5.95;;;12.10;99.90;;;;;;5062446;28;20048;-79
2022/10/29 01:26:51;;;;;;;15.10;4.43;;;12.00;99.90;;;;;;5037985;28;20060;-80
2022/10/29 01:29:35;;;;;;;8.65;4.38;;;12.00;99.90;;;;;;5056728;28;20127;-80
2022/10/29 01:32:13;;;;;;;12.30;5.13;;;11.90;99.90;;;;;;5043701;28;20131;-80
2022/10/29 01:35:09;;;;;;;11.57;3.78;;;11.90;99.90;;;;;;5060556;28;20083;-80
2022/10/29 01:37:47;;;;;;;13.70;4.70;;;11.80;99.90;;;;;;5044180;28;20087;-80
2022/10/29 01:40:25;;;;;;;11.15;3.25;;;11.80;99.90;;;;;;5056045;28;20057;-80
2022/10/29 01:43:17;;;;;;;6.80;3.25;;;11.70;99.90;;;;;;5058100;28;20056;-80
2022/10/29 01:46:20;;;;;;;10.63;3.60;;;11.70;99.90;;;;;;5052694;28;20060;-79
2022/10/29 01:48:50;;;;;;;12.43;4.15;;;11.70;99.90;;;;;;5045390;28;20051;-81
2022/10/29 01:51:36;;;;;;;62.85;6.72;;;11.70;99.90;;;;;;5054011;28;20041;-81
2022/10/29 01:54:08;;;;;;;75.82;5.90;;;11.70;99.90;;;;;;5058103;28;20406;-81
2022/10/29 01:56:34;;;;;;;9.27;3.15;;;11.60;99.90;;;;;;5059821;28;20041;-81
2022/10/29 01:59:04;;;;;;;15.52;2.65;;;11.60;99.90;;;;;;5006763;28;20569;-81
2022/10/29 02:02:04;;;;;;;11.77;4.30;;;11.50;99.90;;;;;;5031486;28;20047;-80
2022/10/29 02:04:56;;;;;;;12.20;4.05;;;11.50;99.90;;;;;;5029459;28;20522;-80
2022/10/29 02:07:31;;;;;;;9.73;4.38;;;11.40;99.90;;;;;;5015865;28;20128;-80
2022/10/29 02:10:13;;;;;;;17.77;7.13;;;11.50;99.90;;;;;;5034110;28;20403;-80
2022/10/29 02:12:46;;;;;;;15.00;5.80;;;11.50;99.90;;;;;;5051892;28;20048;-80
2022/10/29 02:15:27;;;;;;;13.20;6.15;;;11.50;99.90;;;;;;5031474;28;20052;-80
2022/10/29 02:17:59;;;;;;;34.92;6.60;;;11.60;99.90;;;;;;5048355;28;20060;-80
2022/10/29 02:20:24;;;;;;;12.65;5.28;;;11.60;99.90;;;;;;5040018;28;20107;-80
2022/10/29 02:22:50;;;;;;;17.48;7.60;;;11.50;99.90;;;;;;5067450;28;20048;-81
2022/10/29 02:25:16;;;;;;;27.95;9.10;;;11.50;99.90;;;;;;5049293;28;20463;-80
2022/10/29 02:27:42;;;;;;;48.10;11.43;;;11.40;99.90;;;;;;5036035;28;20041;-81
2022/10/29 02:30:08;;;;;;;59.20;12.93;;;11.50;99.90;;;;;;5031437;28;20052;-80
2022/10/29 02:32:34;;;;;;;36.20;11.90;;;11.50;99.90;;;;;;5039918;28;20086;-81
2022/10/29 02:35:00;;;;;;;65.68;14.60;;;11.40;99.90;;;;;;5015680;28;20045;-80
2022/10/29 02:37:27;;;;;;;70.18;12.43;;;11.40;99.90;;;;;;5032862;28;20037;-81
2022/10/29 02:39:52;;;;;;;41.00;10.82;;;11.40;99.90;;;;;;5016584;28;20123;-81
2022/10/29 02:42:18;;;;;;;24.63;12.30;;;11.40;99.90;;;;;;5033340;28;20152;-80
2022/10/29 02:44:44;;;;;;;68.53;14.77;;;11.40;99.90;;;;;;5057939;28;20048;-81
2022/10/29 02:47:10;;;;;;;56.13;15.27;;;11.40;99.90;;;;;;5059345;28;20105;-81
2022/10/29 02:49:35;;;;;;;48.78;13.57;;;11.50;99.90;;;;;;5007374;28;20075;-81
2022/10/29 02:52:01;;;;;;;28.50;11.60;;;11.50;99.90;;;;;;5043328;28;20132;-81
2022/10/29 02:54:27;;;;;;;11.80;10.25;;;11.50;99.90;;;;;;5062619;28;20044;-81
2022/10/29 02:56:52;;;;;;;14.50;10.43;;;11.50;99.90;;;;;;5028002;28;20048;-81
2022/10/29 02:59:19;;;;;;;148.35;18.88;;;11.50;99.90;;;;;;5025319;28;20673;-82
2022/10/29 03:01:45;;;;;;;80.30;23.73;;;11.50;99.90;;;;;;5028479;28;20048;-81
2022/10/29 03:04:11;;;;;;;102.43;24.25;;;11.40;99.90;;;;;;5036872;28;20040;-81
2022/10/29 03:06:37;;;;;;;143.48;26.20;;;11.50;99.90;;;;;;5041607;28;20045;-81
2022/10/29 03:09:03;;;;;;;13.50;10.60;;;11.50;99.90;;;;;;5011402;28;20574;-81
2022/10/29 03:11:29;;;;;;;57.88;22.40;;;11.50;99.90;;;;;;5052066;28;20441;-81
2022/10/29 03:13:55;;;;;;;83.45;25.50;;;11.50;99.90;;;;;;5050020;28;20079;-81
2022/10/29 03:16:21;;;;;;;19.95;13.73;;;11.60;99.90;;;;;;5012140;28;20083;-81
2022/10/29 03:18:47;;;;;;;19.50;13.05;;;11.70;99.90;;;;;;5042740;28;20491;-81
2022/10/29 03:21:13;;;;;;;34.63;15.65;;;11.60;99.90;;;;;;5028609;28;20056;-81
2022/10/29 03:23:38;;;;;;;25.17;15.60;;;11.70;99.90;;;;;;5019716;28;20041;-82
2022/10/29 03:26:04;;;;;;;31.67;19.55;;;11.80;99.90;;;;;;5031933;28;20033;-81
2022/10/29 03:28:30;;;;;;;19.52;14.98;;;11.80;99.90;;;;;;5062254;28;20679;-81
2022/10/29 03:30:57;;;;;;;36.92;17.95;;;11.80;99.90;;;;;;5043703;28;20040;-81
2022/10/29 03:33:25;;;;;;;18.65;14.10;;;11.80;99.90;;;;;;5022544;28;20131;-81
2022/10/29 03:35:58;;;;;;;27.05;17.75;;;11.90;99.90;;;;;;5043403;28;20178;-81
2022/10/29 03:38:24;;;;;;;23.90;17.25;;;11.90;99.90;;;;;;5039507;28;20056;-81
2022/10/29 03:40:51;;;;;;;28.48;18.95;;;11.90;99.90;;;;;;5011634;28;20052;-81
2022/10/29 03:43:17;;;;;;;25.02;17.40;;;12.00;99.90;;;;;;5058381;28;20056;-81
2022/10/29 03:45:48;;;;;;;26.33;18.30;;;12.00;99.90;;;;;;5042469;28;20048;-81
2022/10/29 03:48:14;;;;;;;37.08;22.08;;;12.00;99.90;;;;;;5052035;28;20109;-81
2022/10/29 03:50:39;;;;;;;37.45;22.10;;;12.10;99.90;;;;;;5064794;28;20512;-80
2022/10/29 03:53:05;;;;;;;32.08;19.73;;;12.10;99.90;;;;;;5026378;28;20036;-81
2022/10/29 03:55:31;;;;;;;29.58;19.10;;;12.10;99.90;;;;;;5064224;28;20111;-81
2022/10/29 03:57:57;;;;;;;24.80;18.52;;;12.10;99.90;;;;;;5026631;28;20095;-81
2022/10/29 04:00:22;;;;;;;30.80;21.75;;;12.10;99.90;;;;;;5028486;28;20049;-81
2022/10/29 04:02:48;;;;;;;31.85;18.67;;;12.20;99.90;;;;;;5039675;28;20460;-82
2022/10/29 04:05:14;;;;;;;35.72;21.92;;;12.20;99.90;;;;;;5055674;28;20498;-82
2022/10/29 04:07:40;;;;;;;38.13;21.70;;;12.20;99.90;;;;;;5044228;28;20395;-82
2022/10/29 04:10:06;;;;;;;49.40;25.38;;;12.20;99.90;;;;;;5030858;28;20045;-82
2022/10/29 04:12:31;;;;;;;47.25;24.95;;;12.20;99.90;;;;;;5018336;28;20499;-81
2022/10/29 04:14:57;;;;;;;30.90;20.90;;;12.20;99.90;;;;;;5002521;28;20438;-81
2022/10/29 04:17:23;;;;;;;41.50;21.77;;;12.20;99.90;;;;;;5028543;28;20044;-81
2022/10/29 04:19:52;;;;;;;42.08;21.88;;;12.30;99.90;;;;;;5046946;28;20506;-82
2022/10/29 04:22:18;;;;;;;37.47;19.80;;;12.30;99.90;;;;;;5037247;28;20045;-81
2022/10/29 04:24:44;;;;;;;37.10;20.15;;;12.30;99.90;;;;;;5027987;28;20043;-82
2022/10/29 04:27:10;;;;;;;39.72;20.02;;;12.30;99.90;;;;;;5040235;28;20262;-81
2022/10/29 04:29:35;;;;;;;36.38;20.88;;;12.30;99.90;;;;;;5015532;28;20119;-82
2022/10/29 04:32:01;;;;;;;36.10;19.08;;;12.30;99.90;;;;;;5032871;28;20457;-82
2022/10/29 04:34:27;;;;;;;41.30;21.17;;;12.30;99.90;;;;;;5027529;28;20507;-82
2022/10/29 04:36:53;;;;;;;106.55;31.90;;;12.30;99.90;;;;;;5050837;28;20036;-82
2022/10/29 04:39:19;;;;;;;148.13;36.67;;;12.30;99.90;;;;;;5045822;28;20071;-81
2022/10/29 04:41:48;;;;;;;70.47;28.08;;;12.40;99.90;;;;;;5041814;28;20070;-82
2022/10/29 04:44:14;;;;;;;130.35;37.63;;;12.40;99.90;;;;;;5059902;28;20080;-82
2022/10/29 04:46:39;;;;;;;36.38;20.85;;;12.40;99.90;;;;;;5028335;28;20087;-82
2022/10/29 04:49:05;;;;;;;46.45;23.67;;;12.40;99.90;;;;;;5038997;28;20045;-82
2022/10/29 04:51:31;;;;;;;74.18;30.20;;;12.40;99.90;;;;;;5036324;28;20044;-82
2022/10/29 04:53:57;;;;;;;46.05;22.58;;;12.40;99.90;;;;;;5030063;28;20056;-82
2022/10/29 04:56:22;;;;;;;46.97;23.90;;;12.50;99.90;;;;;;5059143;28;20044;-82
2022/10/29 04:58:52;;;;;;;56.80;26.05;;;12.50;99.90;;;;;;5045879;28;20380;-82
2022/10/29 05:01:18;;;;;;;56.33;29.38;;;12.50;99.90;;;;;;5043803;28;20521;-82
2022/10/29 05:03:43;;;;;;;41.08;23.45;;;12.50;99.90;;;;;;5041646;28;20040;-82
2022/10/29 05:06:09;;;;;;;49.90;23.85;;;12.50;99.90;;;;;;5053004;28;20037;-82
2022/10/29 05:08:35;;;;;;;34.72;20.15;;;12.50;99.90;;;;;;5023682;28;20040;-81
2022/10/29 05:11:05;;;;;;;39.03;22.38;;;12.50;99.90;;;;;;5018709;28;20400;-82
2022/10/29 05:13:31;;;;;;;31.80;22.58;;;12.50;99.90;;;;;;5037721;28;20464;-82
2022/10/29 05:15:57;;;;;;;38.10;22.80;;;12.40;99.90;;;;;;5035966;28;20116;-82
2022/10/29 05:18:23;;;;;;;42.35;22.23;;;12.40;99.90;;;;;;5050828;28;20063;-82
2022/10/29 05:20:52;;;;;;;35.83;22.08;;;12.40;99.90;;;;;;5030259;28;20052;-82
2022/10/29 05:23:18;;;;;;;32.07;21.03;;;12.40;99.90;;;;;;5046056;28;20409;-82
2022/10/29 05:25:47;;;;;;;48.33;27.40;;;12.40;99.90;;;;;;5042418;28;20666;-83
2022/10/29 05:28:21;;;;;;;54.65;27.25;;;12.40;99.90;;;;;;5025028;28;20094;-84
2022/10/29 05:30:51;;;;;;;54.38;28.10;;;12.40;99.90;;;;;;5026357;28;20518;-83
2022/10/29 05:33:19;;;;;;;45.75;26.08;;;12.40;99.90;;;;;;5052526;28;20075;-83
2022/10/29 05:35:46;;;;;;;52.08;27.95;;;12.40;99.90;;;;;;5044288;28;20078;-83
2022/10/29 05:38:12;;;;;;;39.38;24.42;;;12.30;99.90;;;;;;5043259;28;20056;-83
2022/10/29 05:40:39;;;;;;;47.35;28.70;;;12.40;99.90;;;;;;5041829;28;20048;-83
2022/10/29 05:43:05;;;;;;;34.05;23.85;;;12.40;99.90;;;;;;5045733;28;20040;-83
2022/10/29 05:45:31;;;;;;;44.65;25.05;;;12.40;99.90;;;;;;5036612;28;20550;-81
2022/10/29 05:47:59;;;;;;;54.35;26.95;;;12.50;99.90;;;;;;5024061;28;20040;-81
2022/10/29 05:50:25;;;;;;;44.45;24.70;;;12.50;99.90;;;;;;5029815;28;20162;-81
2022/10/29 05:53:00;;;;;;;52.55;27.83;;;12.50;99.90;;;;;;5066545;28;20737;-81
2022/10/29 05:55:26;;;;;;;79.28;33.33;;;12.50;99.90;;;;;;5047657;28;20384;-81
2022/10/29 05:58:00;;;;;;;50.38;28.67;;;12.50;99.90;;;;;;5062149;28;20044;-82
2022/10/29 06:00:27;;;;;;;49.38;28.65;;;12.50;99.90;;;;;;5041347;28;20040;-83
2022/10/29 06:02:53;;;;;;;51.95;29.55;;;12.50;99.90;;;;;;5020450;28;20826;-83
2022/10/29 06:05:20;;;;;;;62.15;32.38;;;12.50;99.90;;;;;;5030958;28;20494;-81
2022/10/29 06:07:57;;;;;;;62.40;32.88;;;12.50;99.90;;;;;;5047421;28;20044;-82
2022/10/29 06:10:24;;;;;;;56.08;31.70;;;12.60;99.90;;;;;;5047340;28;20463;-82
2022/10/29 06:12:50;;;;;;;44.63;27.17;;;12.60;99.90;;;;;;5042989;28;20107;-82
2022/10/29 06:15:16;;;;;;;80.10;35.72;;;12.50;99.90;;;;;;5025627;28;20036;-82
2022/10/29 06:17:43;;;;;;;60.55;31.33;;;12.60;99.90;;;;;;5039605;28;20517;-81
2022/10/29 06:20:11;;;;;;;194.93;47.03;;;12.60;99.90;;;;;;5027970;28;20384;-81
2022/10/29 06:22:36;;;;;;;82.80;35.40;;;12.60;99.90;;;;;;5041601;28;20103;-82
2022/10/29 06:25:03;;;;;;;59.50;32.92;;;12.60;99.90;;;;;;5030322;28;20487;-81
2022/10/29 06:27:29;;;;;;;141.18;39.97;;;12.60;99.90;;;;;;5028492;28;20040;-82
2022/10/29 06:29:54;;;;;;;91.75;31.83;;;12.60;99.90;;;;;;5043693;28;20506;-81
2022/10/29 06:32:20;;;;;;;87.13;36.70;;;12.60;99.90;;;;;;5045509;28;20056;-81
2022/10/29 06:34:46;;;;;;;109.88;34.95;;;12.60;99.90;;;;;;5022555;28;20045;-81
2022/10/29 06:37:13;;;;;;;109.70;37.85;;;12.60;99.90;;;;;;5020857;28;20116;-82
2022/10/29 06:39:39;;;;;;;164.80;41.78;;;12.60;99.90;;;;;;5023854;28;20059;-82
2022/10/29 06:42:04;;;;;;;154.88;42.25;;;12.60;99.90;;;;;;5055893;28;20143;-82
2022/10/29 06:44:30;;;;;;;95.47;34.28;;;12.60;99.90;;;;;;5053262;28;20131;-82
2022/10/29 06:46:56;;;;;;;86.68;34.63;;;12.60;99.90;;;;;;5023709;28;20052;-82
2022/10/29 06:49:22;;;;;;;159.55;44.17;;;12.60;99.90;;;;;;5028613;28;20399;-81
2022/10/29 06:51:48;;;;;;;66.72;29.55;;;12.60;99.90;;;;;;5049005;28;20589;-82
2022/10/29 06:54:14;;;;;;;94.05;35.88;;;12.60;99.90;;;;;;5020131;28;20052;-81
2022/10/29 06:56:39;;;;;;;54.70;31.40;;;12.60;99.90;;;;;;5059001;28;20053;-81
2022/10/29 06:59:05;;;;;;;62.78;30.92;;;12.60;99.90;;;;;;5059373;28;20044;-82
2022/10/29 07:01:32;;;;;;;74.53;34.00;;;12.60;99.90;;;;;;5053367;28;20041;-81
2022/10/29 07:04:04;;;;;;;44.03;28.90;;;12.60;99.90;;;;;;5064698;28;20076;-81
2022/10/29 07:06:32;;;;;;;92.88;38.40;;;12.70;99.90;;;;;;5054629;28;20052;-82
2022/10/29 07:09:01;;;;;;;50.20;29.55;;;12.60;99.90;;;;;;5047272;28;20050;-82
2022/10/29 07:11:27;;;;;;;75.40;35.30;;;12.60;99.90;;;;;;5051506;28;20563;-82
2022/10/29 07:13:52;;;;;;;70.53;33.20;;;12.60;99.90;;;;;;5053220;28;20044;-81
2022/10/29 07:16:18;;;;;;;65.93;33.33;;;12.70;99.90;;;;;;5058952;28;20143;-81
2022/10/29 07:18:44;;;;;;;56.53;32.30;;;12.60;99.90;;;;;;5028589;28;20060;-81
2022/10/29 07:21:10;;;;;;;148.23;46.40;;;12.70;99.90;;;;;;5052655;28;20124;-81
2022/10/29 07:23:36;;;;;;;52.25;32.00;;;12.70;99.90;;;;;;5049165;28;20044;-82
2022/10/29 07:26:01;;;;;;;54.60;31.30;;;12.70;99.90;;;;;;5062225;28;20612;-82
2022/10/29 07:28:27;;;;;;;52.05;31.67;;;12.70;99.90;;;;;;5028713;28;20033;-81
2022/10/29 07:30:59;;;;;;;44.45;30.27;;;12.70;99.90;;;;;;5022269;28;20048;-81
2022/10/29 07:33:27;;;;;;;62.38;34.40;;;12.70;99.90;;;;;;5037607;28;20068;-82
2022/10/29 07:35:56;;;;;;;71.60;37.05;;;12.70;99.90;;;;;;5035818;28;20041;-82
2022/10/29 07:38:22;;;;;;;55.70;33.13;;;12.70;99.90;;;;;;5048574;28;20080;-81
2022/10/29 07:40:49;;;;;;;46.00;30.67;;;12.70;99.90;;;;;;5033270;28;20092;-81
2022/10/29 07:43:16;;;;;;;45.20;30.35;;;12.70;99.90;;;;;;5029627;28;20406;-82
2022/10/29 07:45:44;;;;;;;53.08;32.95;;;12.70;99.90;;;;;;5044468;28;20394;-82
2022/10/29 07:48:10;;;;;;;42.63;29.77;;;12.70;99.90;;;;;;5056043;28;20053;-81
2022/10/29 07:50:37;;;;;;;44.42;30.02;;;12.80;99.90;;;;;;5037394;28;20044;-81
2022/10/29 07:53:04;;;;;;;46.38;29.70;;;12.80;99.90;;;;;;5032719;28;20054;-81
2022/10/29 07:55:30;;;;;;;48.50;31.92;;;12.80;99.90;;;;;;5040567;28;20090;-80
2022/10/29 07:57:57;;;;;;;47.42;31.08;;;12.90;99.90;;;;;;5052052;28;20052;-82
2022/10/29 08:00:24;;;;;;;52.05;32.55;;;12.90;99.90;;;;;;5056158;28;20052;-81
2022/10/29 08:02:54;;;;;;;43.20;29.73;;;12.90;99.90;;;;;;5033730;28;20063;-81
2022/10/29 08:05:21;;;;;;;50.80;33.10;;;13.00;99.90;;;;;;5035661;28;20291;-82
2022/10/29 08:07:47;;;;;;;49.67;33.42;;;13.00;99.90;;;;;;5041424;28;20120;-82
2022/10/29 08:10:13;;;;;;;44.10;31.38;;;13.00;99.90;;;;;;5046694;28;20070;-81
2022/10/29 08:12:39;;;;;;;67.47;37.72;;;13.00;99.90;;;;;;5031660;28;20422;-81
2022/10/29 08:15:05;;;;;;;49.60;30.17;;;13.00;99.90;;;;;;5024346;28;20048;-81
2022/10/29 08:17:31;;;;;;;50.08;34.40;;;13.10;99.90;;;;;;5031549;28;20044;-81
2022/10/29 08:19:57;;;;;;;56.17;33.40;;;13.10;99.90;;;;;;5042940;28;20048;-81
2022/10/29 08:22:23;;;;;;;48.55;33.25;;;13.20;99.90;;;;;;5033464;28;20048;-82
2022/10/29 08:24:49;;;;;;;47.90;31.77;;;13.20;99.90;;;;;;5054508;28;20048;-82
2022/10/29 08:27:15;;;;;;;54.30;34.08;;;13.20;99.90;;;;;;5007086;28;20045;-81
2022/10/29 08:29:40;;;;;;;44.53;31.83;;;13.30;99.90;;;;;;5030369;28;20139;-81
2022/10/29 08:32:06;;;;;;;51.50;32.85;;;13.30;99.90;;;;;;5027552;28;20048;-81
2022/10/29 08:34:32;;;;;;;48.03;32.13;;;13.30;99.90;;;;;;5049185;28;20487;-82
2022/10/29 08:37:00;;;;;;;43.70;30.35;;;13.40;99.90;;;;;;5020860;28;20051;-82
2022/10/29 08:39:26;;;;;;;54.10;32.55;;;13.50;99.90;;;;;;5034033;28;20037;-80
2022/10/29 08:42:01;;;;;;;53.08;32.33;;;13.50;99.90;;;;;;5050862;28;20044;-82
2022/10/29 08:44:47;;;;;;;43.33;31.27;;;13.60;99.90;;;;;;5035395;28;20040;-81
2022/10/29 08:47:15;;;;;;;43.33;29.35;;;13.60;99.90;;;;;;5043626;28;20535;-81
2022/10/29 08:50:22;;;;;;;46.83;29.52;;;13.70;99.90;;;;;;5042625;28;20052;-81
2022/10/29 08:52:50;;;;;;;50.50;31.23;;;13.80;99.90;;;;;;5036748;28;20053;-81
2022/10/29 08:55:19;;;;;;;43.60;30.70;;;13.90;99.90;;;;;;5047839;28;20045;-82
2022/10/29 08:58:20;;;;;;;54.50;32.90;;;14.00;99.90;;;;;;5053872;28;20055;-82
2022/10/29 09:00:50;;;;;;;48.08;29.80;;;14.10;99.90;;;;;;5031420;28;20490;-82
2022/10/29 09:03:16;;;;;;;48.05;29.30;;;14.20;99.90;;;;;;5048802;28;20051;-82
2022/10/29 09:06:07;;;;;;;43.72;30.85;;;14.20;99.90;;;;;;5048026;28;20029;-82
2022/10/29 09:08:52;;;;;;;45.05;30.13;;;14.30;99.90;;;;;;5050781;28;20048;-82
2022/10/29 09:11:39;;;;;;;45.72;30.23;;;14.40;99.90;;;;;;5054638;28;20040;-82
2022/10/29 09:14:39;;;;;;;42.72;29.23;;;14.40;99.90;;;;;;5058722;28;20086;-82
2022/10/29 09:17:15;;;;;;;38.80;27.35;;;14.50;99.90;;;;;;5044036;28;20064;-82
2022/10/29 09:20:07;;;;;;;42.58;29.38;;;14.50;99.90;;;;;;5035239;28;20091;-83
2022/10/29 09:22:35;;;;;;;41.92;28.70;;;14.50;99.90;;;;;;5072977;28;20072;-83
2022/10/29 09:25:15;;;;;;;48.83;33.67;;;14.50;99.90;;;;;;5056658;28;20041;-83
2022/10/29 09:28:17;;;;;;;40.88;28.17;;;14.60;99.90;;;;;;5064454;28;20057;-83
2022/10/29 09:31:16;;;;;;;43.75;28.73;;;14.60;99.90;;;;;;5040326;28;20599;-83
2022/10/29 09:33:49;;;;;;;39.95;27.60;;;14.60;99.90;;;;;;5061774;28;20048;-83
2022/10/29 09:36:22;;;;;;;42.45;29.40;;;14.70;99.90;;;;;;5053318;28;20044;-82
2022/10/29 09:39:01;;;;;;;45.55;30.63;;;14.70;99.90;;;;;;5043858;28;20032;-82
2022/10/29 09:41:31;;;;;;;43.90;30.73;;;14.80;99.90;;;;;;5060632;28;20127;-82
2022/10/29 09:44:15;;;;;;;41.50;29.38;;;14.80;99.90;;;;;;5037749;28;20049;-81
2022/10/29 09:47:00;;;;;;;42.63;29.25;;;14.90;99.90;;;;;;5039585;28;20472;-81
2022/10/29 09:49:47;;;;;;;41.85;28.88;;;15.00;99.90;;;;;;5044400;28;20514;-81
2022/10/29 09:52:20;;;;;;;39.95;30.27;;;15.10;99.90;;;;;;5036711;28;20337;-81
2022/10/29 09:54:49;;;;;;;43.42;28.58;;;15.20;99.90;;;;;;5052574;28;20045;-81
2022/10/29 09:57:20;;;;;;;41.87;29.57;;;15.20;99.90;;;;;;5043942;28;20040;-81
2022/10/29 09:59:59;;;;;;;33.45;26.13;;;15.30;99.90;;;;;;5053299;28;20315;-81
2022/10/29 10:02:41;;;;;;;38.47;27.02;;;15.40;99.90;;;;;;5038158;28;20495;-81
2022/10/29 10:05:21;;;;;;;38.38;28.55;;;15.40;99.90;;;;;;5060520;28;20056;-81
2022/10/29 10:08:03;;;;;;;39.78;28.25;;;15.50;99.90;;;;;;5057846;28;20040;-81
2022/10/29 10:10:30;;;;;;;36.30;28.13;;;15.60;99.90;;;;;;5069485;28;20064;-81
2022/10/29 10:13:02;;;;;;;41.72;29.17;;;15.70;99.90;;;;;;5056307;28;20183;-81
2022/10/29 10:15:31;;;;;;;36.17;26.80;;;15.70;99.90;;;;;;5027937;28;20037;-81
2022/10/29 10:18:03;;;;;;;36.78;28.02;;;15.80;99.90;;;;;;5051975;28;20242;-81
2022/10/29 10:20:34;;;;;;;37.55;27.13;;;15.80;99.90;;;;;;5044294;28;20494;-82
2022/10/29 10:23:00;;;;;;;37.15;26.63;;;15.90;99.90;;;;;;5039818;28;20048;-82
2022/10/29 10:25:36;;;;;;;35.10;25.55;;;16.00;99.90;;;;;;5043572;28;20090;-82
2022/10/29 10:28:23;;;;;;;33.08;25.73;;;16.00;99.90;;;;;;5074692;28;20045;-82
2022/10/29 10:31:07;;;;;;;34.83;26.35;;;16.10;99.90;;;;;;5060423;28;20126;-82
2022/10/29 10:33:35;;;;;;;31.95;24.50;;;16.20;99.90;;;;;;5048127;28;20491;-82
2022/10/29 10:36:05;;;;;;;37.10;24.58;;;16.30;99.90;;;;;;5050473;28;20115;-82
2022/10/29 10:38:45;;;;;;;34.10;24.83;;;16.40;99.90;;;;;;5048583;28;20441;-83
2022/10/29 10:41:12;;;;;;;35.28;25.08;;;16.50;99.90;;;;;;5062544;28;20052;-83
2022/10/29 10:43:45;;;;;;;29.15;22.45;;;16.60;99.90;;;;;;5030839;28;20470;-82
2022/10/29 10:46:24;;;;;;;29.75;22.70;;;16.60;99.90;;;;;;5026105;28;20067;-82
2022/10/29 10:49:29;;;;;;;28.83;21.10;;;16.70;99.90;;;;;;5057187;28;20519;-82
2022/10/29 10:51:56;;;;;;;28.23;21.05;;;16.70;99.90;;;;;;5034929;28;20056;-82
2022/10/29 10:54:36;;;;;;;28.95;21.38;;;16.90;99.90;;;;;;5062875;28;20127;-82
2022/10/29 10:57:03;;;;;;;30.55;19.48;;;16.90;99.90;;;;;;5045855;28;20076;-81
2022/10/29 10:59:44;;;;;;;30.25;20.20;;;17.00;99.90;;;;;;5062033;28;20147;-81
2022/10/29 11:02:47;;;;;;;29.10;20.25;;;17.00;99.90;;;;;;5064568;28;20402;-81
2022/10/29 11:05:23;;;;;;;27.13;19.05;;;17.10;99.90;;;;;;5060294;28;20049;-81
2022/10/29 11:08:12;;;;;;;31.27;19.38;;;17.10;99.90;;;;;;5061589;28;20052;-81
2022/10/29 11:11:18;;;;;;;27.52;19.60;;;17.20;99.90;;;;;;5059237;28;20045;-81
2022/10/29 11:13:44;;;;;;;28.75;19.63;;;17.40;99.90;;;;;;5050325;28;20576;-82
2022/10/29 11:16:17;;;;;;;25.33;17.98;;;17.50;99.90;;;;;;5062817;28;20570;-82
2022/10/29 11:19:03;;;;;;;23.77;16.65;;;17.60;99.90;;;;;;5047793;28;20048;-81
2022/10/29 11:21:38;;;;;;;22.83;16.25;;;17.70;99.90;;;;;;5055137;28;20062;-82
2022/10/29 11:24:17;;;;;;;27.58;17.70;;;17.70;99.90;;;;;;5053948;28;20044;-82
2022/10/29 11:27:02;;;;;;;26.67;17.15;;;17.80;99.90;;;;;;5041258;28;20471;-83
2022/10/29 11:30:01;;;;;;;22.25;15.10;;;18.00;99.90;;;;;;5039415;28;20067;-83
2022/10/29 11:32:47;;;;;;;28.03;15.53;;;18.00;99.90;;;;;;5056719;28;20447;-82
2022/10/29 11:35:26;;;;;;;25.27;14.77;;;18.00;99.90;;;;;;5056580;28;20131;-83
2022/10/29 11:38:00;;;;;;;26.27;16.02;;;18.00;99.90;;;;;;5045863;28;20044;-83
2022/10/29 11:40:57;;;;;;;24.60;15.02;;;18.00;99.90;;;;;;5046020;28;20040;-83
2022/10/29 11:43:23;;;;;;;21.80;15.13;;;18.00;99.90;;;;;;5060607;28;20105;-83
2022/10/29 11:46:32;;;;;;;23.35;15.85;;;18.00;99.90;;;;;;5043899;28;20055;-83
2022/10/29 11:49:22;;;;;;;23.05;14.65;;;18.10;99.90;;;;;;5058036;28;20132;-83
2022/10/29 11:52:04;;;;;;;;;;;18.10;99.90;;;;;;5047516;28;20136;-83
2022/10/29 11:54:39;;;;;;;25.25;16.08;;;18.00;99.90;;;;;;5060494;28;20510;-83
2022/10/29 11:57:15;;;;;;;23.13;15.90;;;18.10;99.90;;;;;;5057961;28;20041;-84
2022/10/29 12:00:02;;;;;;;25.58;15.60;;;18.10;99.90;;;;;;5063717;28;20045;-84
2022/10/29 12:02:59;;;;;;;23.48;14.45;;;18.20;99.90;;;;;;5055271;28;20498;-84
2022/10/29 12:06:03;;;;;;;27.20;16.58;;;18.30;99.90;;;;;;5037320;28;20036;-84
2022/10/29 12:08:51;;;;;;;20.73;16.02;;;18.40;99.90;;;;;;5057585;28;20097;-83
2022/10/29 12:11:42;;;;;;;25.33;16.25;;;18.40;99.90;;;;;;5041173;28;20040;-84
2022/10/29 12:14:10;;;;;;;21.17;15.15;;;18.50;99.90;;;;;;5056891;28;20052;-83
2022/10/29 12:16:51;;;;;;;24.17;14.82;;;18.60;99.90;;;;;;5034946;28;20036;-83
2022/10/29 12:19:36;;;;;;;22.38;15.70;;;18.60;99.90;;;;;;5047353;28;20509;-84
2022/10/29 12:22:25;;;;;;;25.92;15.30;;;18.70;99.90;;;;;;5045098;28;20386;-83
2022/10/29 12:25:15;;;;;;;25.13;15.82;;;18.70;99.90;;;;;;5061714;28;20543;-83
2022/10/29 12:28:02;;;;;;;23.33;14.50;;;18.80;99.90;;;;;;5060464;28;20055;-83
2022/10/29 12:30:33;;;;;;;24.85;15.45;;;18.80;99.90;;;;;;5046475;28;20430;-84
2022/10/29 12:33:24;;;;;;;23.75;14.32;;;18.80;99.90;;;;;;5045658;28;20056;-83
2022/10/29 12:35:55;;;;;;;24.70;14.60;;;18.80;99.90;;;;;;5057912;28;20048;-83
2022/10/29 12:38:43;;;;;;;25.50;15.23;;;18.90;99.90;;;;;;5061750;28;20041;-82
2022/10/29 12:41:12;;;;;;;22.23;13.85;;;18.90;99.90;;;;;;5060873;28;20533;-82
2022/10/29 12:43:39;;;;;;;22.60;14.52;;;18.90;99.90;;;;;;5052378;28;20522;-82
2022/10/29 12:46:37;;;;;;;23.65;14.88;;;18.90;99.90;;;;;;5063020;28;20105;-82
2022/10/29 12:49:23;;;;;;;25.65;15.13;;;18.90;99.90;;;;;;5044054;28;20106;-82
2022/10/29 12:52:00;;;;;;;20.63;14.18;;;18.80;99.90;;;;;;5060801;28;20131;-82
2022/10/29 12:54:30;;;;;;;23.13;14.45;;;18.80;99.90;;;;;;5047023;28;20055;-83